Flight Track Log - Related Links

Times and Time Zones

All times are in EDT time to prevent confusion due to time zone crossing. See the N1588R flight status page for this flight to view local times or setup timezone preferences in your user account.

Time Position Orientation Groundspeed Altitude Reporting Facility
EDT Latitude Longitude Course Direction KTS MPH feet Rate Location/Type
Sat 03:07:26 PM 41.3853 -72.5039 57° Northeast 135 155 7,500  Level Boston Center
Sat 03:08:29 PM 41.4047 -72.4639 57° Northeast 133 153 7,500 48 Level Boston Center
Sat 03:09:30 PM 41.4275 -72.4236 53° Northeast 130 150 7,600  Climbing Boston Center
Sat 03:10:13 PM 41.4439 -72.4003 47° Northeast 127 146 7,500 -98 Descending Boston Center
Sat 03:10:31 PM 41.4494 -72.3864 62° Northeast 129 148 7,500  Level Boston Center
Sat 03:11:20 PM 41.4667 -72.3542 54° Northeast 127 146 7,500  Level Boston Center
Sat 03:11:32 PM 41.4692 -72.3481 61° Northeast 128 147 7,500  Level Boston Center
Sat 03:12:27 PM 41.4883 -72.3133 54° Northeast 127 146 7,500 52 Level Boston Center
Sat 03:13:27 PM 41.5094 -72.2753 53° Northeast 128 147 7,600 50 Climbing Boston Center
Sat 03:14:28 PM 41.5311 -72.2344 55° Northeast 129 148 7,600  Level Boston Center
Sat 03:15:35 PM 41.5536 -72.1908 55° Northeast 127 146 7,600  Level Boston Center
Sat 03:16:31 PM 41.5719 -72.1547 56° Northeast 127 146 7,600  Level Boston Center
Sat 03:17:31 PM 41.5931 -72.1164 54° Northeast 131 151 7,600 -52 Level Boston Center
Sat 03:18:26 PM 41.6117 -72.0800 56° Northeast 134 154 7,500 -86 Descending Boston Center
Sat 03:18:41 PM 41.6169 -72.0703 54° Northeast 130 150 7,500  Level Boston Center
Sat 03:19:27 PM 41.6333 -72.0392 55° Northeast 134 154 7,500  Level Boston Center
Sat 03:19:42 PM 41.6381 -72.0297 56° Northeast 131 151 7,500 -474 Level Boston Center
Sat 03:20:43 PM 41.6622 -71.9853 54° Northeast 137 158 6,900 -532 Descending Boston Center
Sat 03:21:46 PM 41.6844 -71.9442 54° Northeast 137 158 6,400 -550 Descending Boston Center
Sat 03:22:32 PM 41.6992 -71.9108 59° Northeast 135 155 5,900 -590 Descending Boston Center
Sat 03:22:47 PM 41.7053 -71.9019 47° Northeast 137 158 5,800 -400 Descending Boston Center
Sat 03:23:32 PM 41.7208 -71.8697 57° Northeast 132 152 5,500 -500 Descending Boston Center
Sat 03:23:47 PM 41.7256 -71.8600 57° Northeast 136 157 5,300 -556 Descending Boston Center
Sat 03:24:26 PM 41.7411 -71.8339 51° Northeast 133 153 5,000 -393 Descending Boston Center
Sat 03:24:48 PM 41.7500 -71.8183 53° Northeast 135 155 4,900 -448 Descending Boston Center
Sat 03:25:33 PM 41.7658 -71.7883 55° Northeast 136 157 4,500 -581 Descending Boston Center
Sat 03:25:50 PM 41.7711 -71.7764 59° Northeast 135 155 4,300 -235 Descending Boston Center
Sat 03:26:24 PM 41.7817 -71.7536 58° Northeast 135 155 4,300 -393 Level Boston Center
Sat 03:26:51 PM 41.7931 -71.7353 50° Northeast 135 155 3,900 -500 Descending Boston Center
Sat 03:27:24 PM 41.8058 -71.7106 55° Northeast 135 155 3,800 -295 Descending Boston Center
Sat 03:27:52 PM 41.8161 -71.6903 56° Northeast 135 155 3,600 -486 Descending Boston Center
Sat 03:28:38 PM 41.8308 -71.6619 55° Northeast 141 162 3,200 -492 Descending Boston Center
Sat 03:28:53 PM 41.8386 -71.6483 53° Northeast 136 157 3,100 -77 Descending Boston Center
Sat 03:29:56 PM 41.8561 -71.6125 57° Northeast 135 155 3,100  Level Boston Center

Login

Don't have an account? Register now (free) for customized features, flight alerts, and more!